createdAt,value
2022-09-14T00:01:26.199Z,100436.41
2022-09-14T00:04:16.464Z,100433.31
2022-09-14T00:07:01.602Z,100429.06
2022-09-14T00:09:46.656Z,100420.53
2022-09-14T00:12:32.207Z,100417.41
2022-09-14T00:15:17.515Z,100413.28
2022-09-14T00:18:03.273Z,100411.03
2022-09-14T00:20:48.342Z,100416.41
2022-09-14T00:23:37.229Z,100410.00
2022-09-14T00:26:22.969Z,100403.13
2022-09-14T00:29:08.069Z,100391.00
2022-09-14T00:31:53.521Z,100390.75
2022-09-14T00:34:39.084Z,100386.22
2022-09-14T00:37:24.095Z,100378.72
2022-09-14T00:40:10.970Z,100374.22
2022-09-14T00:42:56.072Z,100368.84
2022-09-14T00:45:41.405Z,100370.72
2022-09-14T00:48:27.425Z,100367.72
2022-09-14T00:51:12.760Z,100357.88
2022-09-14T00:53:57.801Z,100369.78
2022-09-14T00:56:43.268Z,100367.66
2022-09-14T00:59:29.595Z,100373.28
2022-09-14T01:02:14.982Z,100375.91
2022-09-14T01:05:00.387Z,100374.03
2022-09-14T01:08:00.951Z,100379.09
2022-09-14T01:10:46.882Z,100386.44
2022-09-14T01:13:50.746Z,100384.16
2022-09-14T01:16:36.162Z,100388.47
2022-09-14T01:19:40.007Z,100385.00
2022-09-14T01:22:32.383Z,100388.47
2022-09-14T01:25:28.051Z,100379.19
2022-09-14T01:28:21.102Z,100383.69
2022-09-14T01:31:09.695Z,100385.94
2022-09-14T01:33:57.429Z,100380.16
2022-09-14T01:36:45.361Z,100376.94
2022-09-14T01:39:31.592Z,100382.28
2022-09-14T01:42:18.941Z,100382.75
2022-09-14T01:45:07.582Z,100387.28
2022-09-14T01:48:03.604Z,100391.69
2022-09-14T01:50:54.360Z,100389.97
2022-09-14T01:53:45.488Z,100387.81
2022-09-14T01:56:35.215Z,100383.97
2022-09-14T01:59:25.012Z,100381.53
2022-09-14T02:02:14.439Z,100382.16
2022-09-14T02:05:07.338Z,100389.88
2022-09-14T02:07:52.793Z,100387.63
2022-09-14T02:10:38.237Z,100393.03
2022-09-14T02:13:23.999Z,100386.91
2022-09-14T02:16:09.415Z,100393.22
2022-09-14T02:18:54.846Z,100392.00
2022-09-14T02:21:40.386Z,100398.28
2022-09-14T02:24:25.756Z,100390.91
2022-09-14T02:27:10.813Z,100386.75
2022-09-14T02:29:56.277Z,100373.16
2022-09-14T02:32:41.263Z,100378.78
2022-09-14T02:35:31.986Z,100367.34
2022-09-14T02:38:21.414Z,100362.25
2022-09-14T02:41:15.248Z,100371.56
2022-09-14T02:44:17.483Z,100365.81
2022-09-14T02:47:05.926Z,100370.97
2022-09-14T02:50:16.601Z,100365.31
2022-09-14T02:53:01.547Z,100369.44
2022-09-14T02:55:49.360Z,100367.03
2022-09-14T02:58:36.165Z,100364.75
2022-09-14T03:01:23.756Z,100359.13
2022-09-14T03:04:09.054Z,100358.66
2022-09-14T03:06:54.621Z,100364.66
2022-09-14T03:09:40.064Z,100362.53
2022-09-14T03:12:25.267Z,100357.63
2022-09-14T03:15:10.723Z,100358.25
2022-09-14T03:17:56.350Z,100356.03
2022-09-14T03:20:42.169Z,100351.72
2022-09-14T03:23:27.587Z,100348.50
2022-09-14T03:26:15.552Z,100344.34
2022-09-14T03:29:00.795Z,100340.06
2022-09-14T03:31:45.855Z,100338.69
2022-09-14T03:34:31.377Z,100329.47
2022-09-14T03:37:16.760Z,100323.47
2022-09-14T03:40:02.121Z,100313.44
2022-09-14T03:42:48.287Z,100318.03
2022-09-14T03:45:33.782Z,100321.41
2022-09-14T03:48:19.181Z,100325.75
2022-09-14T03:51:06.174Z,100321.78
2022-09-14T03:53:51.792Z,100329.03
2022-09-14T03:56:37.142Z,100327.81
2022-09-14T03:59:22.611Z,100326.69
2022-09-14T04:02:07.977Z,100332.88
2022-09-14T04:04:53.691Z,100343.69
2022-09-14T04:07:39.095Z,100345.47
2022-09-14T04:10:24.406Z,100355.03
2022-09-14T04:13:09.794Z,100356.28
2022-09-14T04:15:55.946Z,100351.13
2022-09-14T04:18:41.266Z,100349.59
2022-09-14T04:21:26.733Z,100342.25
2022-09-14T04:24:15.517Z,100341.13
2022-09-14T04:27:01.313Z,100341.13
2022-09-14T04:29:48.719Z,100330.81
2022-09-14T04:32:34.642Z,100336.63
2022-09-14T04:35:20.209Z,100333.72
2022-09-14T04:38:05.841Z,100325.94
2022-09-14T04:40:50.825Z,100323.09
2022-09-14T04:43:35.857Z,100317.66
2022-09-14T04:46:22.504Z,100334.25
2022-09-14T04:49:08.464Z,100333.22
2022-09-14T04:51:53.889Z,100334.25
2022-09-14T04:54:38.904Z,100332.19
2022-09-14T04:57:24.209Z,100328.97
2022-09-14T05:00:09.885Z,100324.34
2022-09-14T05:02:54.960Z,100325.75
2022-09-14T05:05:44.301Z,100331.78
2022-09-14T05:08:30.206Z,100331.47
2022-09-14T05:11:16.624Z,100325.00
2022-09-14T05:14:01.870Z,100332.41
2022-09-14T05:16:47.918Z,100317.25
2022-09-14T05:19:33.064Z,100314.22
2022-09-14T05:22:18.728Z,100311.69
2022-09-14T05:25:03.762Z,100312.59
2022-09-14T05:27:50.019Z,100327.06
2022-09-14T05:30:39.475Z,100331.19
2022-09-14T05:33:24.993Z,100329.53
2022-09-14T05:36:10.320Z,100321.22
2022-09-14T05:38:57.521Z,100311.47
2022-09-14T05:41:42.649Z,100314.16
2022-09-14T05:44:28.129Z,100317.63
2022-09-14T05:47:13.429Z,100324.84
2022-09-14T05:49:58.905Z,100327.16
2022-09-14T05:52:43.847Z,100323.91
2022-09-14T05:55:29.177Z,100320.75
2022-09-14T05:58:14.567Z,100317.63
2022-09-14T06:01:06.241Z,100320.66
2022-09-14T06:03:53.499Z,100305.50
2022-09-14T06:06:38.834Z,100315.19
2022-09-14T06:09:24.380Z,100317.41
2022-09-14T06:12:09.431Z,100318.13
2022-09-14T06:14:54.807Z,100321.63
2022-09-14T06:17:39.777Z,100312.84
2022-09-14T06:20:25.295Z,100321.28
2022-09-14T06:23:10.563Z,100311.56
2022-09-14T06:25:56.706Z,100314.28
2022-09-14T06:28:42.468Z,100308.47
2022-09-14T06:31:27.638Z,100304.50
2022-09-14T06:34:13.031Z,100299.28
2022-09-14T06:36:58.367Z,100311.75
2022-09-14T06:39:43.618Z,100308.94
2022-09-14T06:42:29.596Z,100312.81
2022-09-14T06:45:15.049Z,100304.50
2022-09-14T06:48:00.471Z,100297.16
2022-09-14T06:50:45.411Z,100291.94
2022-09-14T06:53:30.776Z,100291.38
2022-09-14T06:56:16.439Z,100297.13
2022-09-14T06:59:01.697Z,100292.72
2022-09-14T07:01:46.757Z,100296.31
2022-09-14T07:04:31.955Z,100305.91
2022-09-14T07:07:17.201Z,100301.47
2022-09-14T07:10:02.619Z,100304.97
2022-09-14T07:12:48.017Z,100277.53
2022-09-14T07:15:33.315Z,100296.81
2022-09-14T07:18:18.645Z,100302.00
2022-09-14T07:21:13.988Z,100295.75
2022-09-14T07:23:59.569Z,100294.91
2022-09-14T07:26:44.633Z,100288.44
2022-09-14T07:29:30.134Z,100283.03
2022-09-14T07:32:15.603Z,100280.22
2022-09-14T07:35:00.953Z,100273.31
2022-09-14T07:37:45.995Z,100274.16
2022-09-14T07:40:31.858Z,100279.69
2022-09-14T07:43:17.231Z,100280.66
2022-09-14T07:46:04.334Z,100287.59
2022-09-14T07:48:54.364Z,100285.56
2022-09-14T07:51:40.085Z,100284.19
2022-09-14T07:54:25.554Z,100284.84
2022-09-14T07:57:11.131Z,100287.00
2022-09-14T07:59:57.747Z,100286.41
2022-09-14T08:02:43.203Z,100295.09
2022-09-14T08:05:28.743Z,100278.94
2022-09-14T08:08:14.380Z,100293.13
2022-09-14T08:11:04.123Z,100267.44
2022-09-14T08:13:50.519Z,100287.22
2022-09-14T08:16:37.069Z,100290.13
2022-09-14T08:19:22.688Z,100287.38
2022-09-14T08:22:07.995Z,100286.44
2022-09-14T08:24:53.329Z,100282.38
2022-09-14T08:27:38.721Z,100285.16
2022-09-14T08:30:23.958Z,100283.09
2022-09-14T08:33:09.151Z,100273.09
2022-09-14T08:35:58.010Z,100274.38
2022-09-14T08:38:43.900Z,100279.88
2022-09-14T08:41:40.441Z,100272.63
2022-09-14T08:44:25.872Z,100268.63
2022-09-14T08:47:12.087Z,100260.03
2022-09-14T08:50:01.090Z,100254.66
2022-09-14T08:52:47.348Z,100252.44
2022-09-14T08:55:38.885Z,100261.97
2022-09-14T08:58:48.170Z,100260.63
2022-09-14T09:01:46.481Z,100260.72
2022-09-14T09:04:45.358Z,100248.44
2022-09-14T09:07:42.569Z,100244.22
2022-09-14T09:10:28.447Z,100249.19
2022-09-14T09:13:19.720Z,100264.59
2022-09-14T09:16:06.430Z,100260.97
2022-09-14T09:18:55.263Z,100262.75
2022-09-14T09:21:45.780Z,100255.56
2022-09-14T09:24:39.320Z,100254.19
2022-09-14T09:27:26.302Z,100258.44
2022-09-14T09:30:12.869Z,100260.28
2022-09-14T09:32:58.120Z,100251.25
2022-09-14T09:35:43.450Z,100246.81
2022-09-14T09:38:29.392Z,100258.44
2022-09-14T09:41:20.760Z,100240.53
2022-09-14T09:44:09.247Z,100234.56
2022-09-14T09:46:56.311Z,100222.19
2022-09-14T09:49:41.356Z,100219.56
2022-09-14T09:52:27.107Z,100231.31
2022-09-14T09:55:18.211Z,100230.06
2022-09-14T09:58:22.821Z,100238.53
2022-09-14T10:01:17.974Z,100236.75
2022-09-14T10:04:23.272Z,100238.97
2022-09-14T10:07:19.169Z,100230.84
2022-09-14T10:10:04.602Z,100230.63
2022-09-14T10:12:51.706Z,100215.84
2022-09-14T10:15:37.230Z,100220.00
2022-09-14T10:18:22.851Z,100216.38
2022-09-14T10:21:08.991Z,100210.22
2022-09-14T10:24:12.935Z,100208.22
2022-09-14T10:26:58.153Z,100205.88
2022-09-14T10:29:44.394Z,100213.44
2022-09-14T10:32:31.268Z,100218.25
2022-09-14T10:35:17.076Z,100209.09
2022-09-14T10:38:08.465Z,100216.00
2022-09-14T10:41:02.669Z,100198.44
2022-09-14T10:44:07.505Z,100198.44
2022-09-14T10:46:52.889Z,100190.84
2022-09-14T10:49:44.327Z,100202.41
2022-09-14T10:52:46.513Z,100198.97
2022-09-14T10:55:42.148Z,100191.50
2022-09-14T10:58:48.622Z,100199.41
2022-09-14T11:01:45.084Z,100188.19
2022-09-14T11:04:42.536Z,100186.91
2022-09-14T11:07:34.801Z,100182.63
2022-09-14T11:10:25.715Z,100189.31
2022-09-14T11:13:19.928Z,100204.81
2022-09-14T11:16:23.791Z,100186.44
2022-09-14T11:19:17.177Z,100179.00
2022-09-14T11:22:11.597Z,100181.88
2022-09-14T11:24:59.635Z,100173.56
2022-09-14T11:27:54.788Z,100169.22
2022-09-14T11:30:43.255Z,100170.13
2022-09-14T11:33:35.072Z,100174.28
2022-09-14T11:36:25.558Z,100178.34
2022-09-14T11:39:15.073Z,100171.97
2022-09-14T11:42:16.077Z,100176.13
2022-09-14T11:45:16.290Z,100174.81
2022-09-14T11:48:41.239Z,100159.22
2022-09-14T11:51:24.072Z,100156.44
2022-09-14T11:54:16.743Z,100144.22
2022-09-14T11:57:02.984Z,100145.78
2022-09-14T11:59:50.673Z,100151.06
2022-09-14T12:02:36.370Z,100154.72
2022-09-14T12:05:21.581Z,100152.22
2022-09-14T12:08:25.441Z,100152.34
2022-09-14T12:11:10.531Z,100150.84
2022-09-14T12:14:21.063Z,100152.81
2022-09-14T12:17:35.770Z,100152.00
2022-09-14T12:20:20.495Z,100157.59
2022-09-14T12:23:11.034Z,100159.13
2022-09-14T12:26:01.575Z,100156.41
2022-09-14T12:28:48.483Z,100153.34
2022-09-14T12:31:37.273Z,100154.34
2022-09-14T12:34:27.864Z,100146.31
2022-09-14T12:37:28.124Z,100153.00
2022-09-14T12:40:24.279Z,100152.84
2022-09-14T12:43:28.535Z,100149.81
2022-09-14T12:46:19.931Z,100143.97
2022-09-14T12:49:22.115Z,100152.28
2022-09-14T12:52:13.039Z,100156.69
2022-09-14T12:55:01.173Z,100146.63
2022-09-14T12:57:51.497Z,100128.75
2022-09-14T13:00:49.291Z,100147.44
2022-09-14T13:03:45.811Z,100145.44
2022-09-14T13:06:42.553Z,100144.22
2022-09-14T13:09:29.737Z,100145.47
2022-09-14T13:12:19.717Z,100127.19
2022-09-14T13:15:15.228Z,100134.59
2022-09-14T13:18:24.733Z,100129.22
2022-09-14T13:21:21.093Z,100122.06
2022-09-14T13:24:18.499Z,100099.09
2022-09-14T13:27:04.132Z,100111.53
2022-09-14T13:29:57.836Z,100109.19
2022-09-14T13:32:44.199Z,100105.50
2022-09-14T13:35:32.004Z,100101.19
2022-09-14T13:38:22.793Z,100101.00
2022-09-14T13:41:10.538Z,100096.31
2022-09-14T13:43:56.304Z,100092.41
2022-09-14T13:46:41.747Z,100091.16
2022-09-14T13:49:27.042Z,100081.81
2022-09-14T13:52:19.590Z,100079.69
2022-09-14T13:55:17.961Z,100072.75
2022-09-14T13:58:08.916Z,100075.94
2022-09-14T14:00:56.496Z,100074.72
2022-09-14T14:03:46.891Z,100079.03
2022-09-14T14:06:34.881Z,100082.66
2022-09-14T14:09:19.949Z,100074.75
2022-09-14T14:12:05.577Z,100070.91
2022-09-14T14:14:55.227Z,100065.47
2022-09-14T14:17:41.080Z,100063.75
2022-09-14T14:20:26.310Z,100059.69
2022-09-14T14:23:11.635Z,100055.72
2022-09-14T14:26:06.469Z,100051.97
2022-09-14T14:28:51.346Z,100049.31
2022-09-14T14:31:36.880Z,100050.50
2022-09-14T14:34:23.384Z,100047.38
2022-09-14T14:37:08.406Z,100049.06
2022-09-14T14:39:53.988Z,100047.25
2022-09-14T14:42:39.583Z,100041.00
2022-09-14T14:45:26.489Z,100038.13
2022-09-14T14:48:12.233Z,100042.66
2022-09-14T14:50:57.352Z,100037.53
2022-09-14T14:53:42.605Z,100039.00
2022-09-14T14:56:28.380Z,100042.13
2022-09-14T14:59:24.123Z,100026.84
2022-09-14T15:02:09.360Z,100037.84
2022-09-14T15:04:54.835Z,100027.28
2022-09-14T15:07:40.445Z,100027.28
2022-09-14T15:10:26.723Z,100019.09
2022-09-14T15:13:12.487Z,100007.16
2022-09-14T15:15:57.820Z,100027.16
2022-09-14T15:18:43.239Z,100021.22
2022-09-14T15:21:28.251Z,100020.00
2022-09-14T15:24:13.540Z,100023.22
2022-09-14T15:26:59.515Z,100024.88
2022-09-14T15:29:44.590Z,100018.94
2022-09-14T15:32:30.172Z,100010.22
2022-09-14T15:35:15.443Z,100014.84
2022-09-14T15:38:00.800Z,100019.19
2022-09-14T15:40:45.907Z,100021.78
2022-09-14T15:43:31.222Z,100010.59
2022-09-14T15:46:16.678Z,100018.53
2022-09-14T15:49:04.351Z,100019.19
2022-09-14T15:51:50.681Z,100017.56
2022-09-14T15:54:37.191Z,100018.97
2022-09-14T15:57:22.405Z,100015.91
2022-09-14T16:00:09.685Z,100010.66
2022-09-14T16:02:55.297Z,100011.66
2022-09-14T16:05:40.372Z,100020.63
2022-09-14T16:08:25.743Z,100019.06
2022-09-14T16:11:11.031Z,100022.31
2022-09-14T16:13:57.369Z,100023.19
2022-09-14T16:16:42.878Z,100024.84
2022-09-14T16:19:28.619Z,100022.22
2022-09-14T16:22:13.789Z,100024.88
2022-09-14T16:24:59.084Z,100014.53
2022-09-14T16:27:44.312Z,100018.31
2022-09-14T16:30:29.662Z,100020.84
2022-09-14T16:33:15.881Z,100027.28
2022-09-14T16:36:05.193Z,100026.88
2022-09-14T16:38:50.529Z,100018.91
2022-09-14T16:41:38.047Z,100018.19
2022-09-14T16:44:24.574Z,100003.50
2022-09-14T16:47:09.845Z,100014.84
2022-09-14T16:49:55.244Z,100010.06
2022-09-14T16:52:40.452Z,100007.00
2022-09-14T16:55:25.728Z,100008.53
2022-09-14T16:58:11.668Z,100012.31
2022-09-14T17:00:57.133Z,100015.53
2022-09-14T17:03:43.441Z,100016.94
2022-09-14T17:06:30.164Z,100021.25
2022-09-14T17:09:25.771Z,100019.44
2022-09-14T17:12:11.447Z,100016.34
2022-09-14T17:14:56.710Z,100016.50
2022-09-14T17:17:41.960Z,100026.25
2022-09-14T17:20:27.237Z,100018.53
2022-09-14T17:23:12.781Z,100018.97
2022-09-14T17:25:58.731Z,100026.63
2022-09-14T17:28:47.308Z,100024.94
2022-09-14T17:31:34.602Z,100018.94
2022-09-14T17:34:19.779Z,100011.25
2022-09-14T17:37:05.198Z,100010.41
2022-09-14T17:39:50.662Z,100018.38
2022-09-14T17:42:36.085Z,100015.00
2022-09-14T17:45:21.460Z,100019.91
2022-09-14T17:48:07.272Z,100017.44
2022-09-14T17:50:52.860Z,100016.31
2022-09-14T17:53:39.076Z,100015.03
2022-09-14T17:56:25.369Z,100022.44
2022-09-14T17:59:11.750Z,100022.72
2022-09-14T18:01:56.881Z,100025.69
2022-09-14T18:04:46.564Z,100022.78
2022-09-14T18:07:34.572Z,100015.69
2022-09-14T18:10:20.014Z,100018.88
2022-09-14T18:13:05.359Z,100015.66
2022-09-14T18:15:54.759Z,100017.31
2022-09-14T18:18:39.852Z,100019.16
2022-09-14T18:21:25.868Z,100019.16
2022-09-14T18:24:11.826Z,100012.59
2022-09-14T18:26:57.992Z,100021.75
2022-09-14T18:29:43.211Z,100019.81
2022-09-14T18:32:28.450Z,100022.16
2022-09-14T18:35:14.952Z,100018.34
2022-09-14T18:37:59.956Z,99995.09
2022-09-14T18:40:45.097Z,100013.97
2022-09-14T18:43:30.431Z,100024.94
2022-09-14T18:46:15.814Z,100016.16
2022-09-14T18:49:01.614Z,100022.25
2022-09-14T18:51:46.779Z,100024.19
2022-09-14T18:54:32.208Z,100025.97
2022-09-14T18:57:19.375Z,100028.56
2022-09-14T19:00:04.665Z,100036.66
2022-09-14T19:02:53.743Z,100029.56
2022-09-14T19:05:40.959Z,100032.22
2022-09-14T19:08:28.022Z,100027.28
2022-09-14T19:11:14.452Z,100028.38
2022-09-14T19:14:06.284Z,100026.38
2022-09-14T19:16:51.657Z,100016.44
2022-09-14T19:19:37.139Z,100026.44
2022-09-14T19:22:22.665Z,100017.19
2022-09-14T19:25:08.029Z,100007.69
2022-09-14T19:27:53.513Z,100021.78
2022-09-14T19:30:39.886Z,100021.22
2022-09-14T19:33:25.448Z,100031.06
2022-09-14T19:36:12.096Z,100021.34
2022-09-14T19:39:01.520Z,100025.91
2022-09-14T19:41:47.353Z,100033.72
2022-09-14T19:44:32.862Z,100031.31
2022-09-14T19:47:18.217Z,100033.50
2022-09-14T19:50:03.947Z,100032.19
2022-09-14T19:52:49.014Z,100031.84
2022-09-14T19:55:34.189Z,100033.69
2022-09-14T19:58:19.784Z,100035.81
2022-09-14T20:01:05.900Z,100032.94
2022-09-14T20:03:51.336Z,100030.44
2022-09-14T20:06:40.106Z,100042.56
2022-09-14T20:09:25.550Z,100045.22
2022-09-14T20:12:10.952Z,100050.47
2022-09-14T20:14:56.335Z,100040.63
2022-09-14T20:17:41.392Z,100042.28
2022-09-14T20:20:26.720Z,100039.38
2022-09-14T20:23:12.027Z,100046.97
2022-09-14T20:26:01.482Z,100038.53
2022-09-14T20:28:46.806Z,100045.59
2022-09-14T20:31:32.177Z,100052.53
2022-09-14T20:34:20.278Z,100046.88
2022-09-14T20:37:05.604Z,100041.13
2022-09-14T20:39:51.164Z,100045.53
2022-09-14T20:42:36.631Z,100045.19
2022-09-14T20:45:22.267Z,100045.13
2022-09-14T20:48:07.396Z,100042.88
2022-09-14T20:50:53.196Z,100049.66
2022-09-14T20:53:39.281Z,100047.78
2022-09-14T20:56:26.152Z,100027.75
2022-09-14T20:59:12.912Z,100049.94
2022-09-14T21:01:59.534Z,100045.00
2022-09-14T21:04:47.937Z,100049.56
2022-09-14T21:07:33.329Z,100041.91
2022-09-14T21:10:18.631Z,100051.59
2022-09-14T21:13:04.049Z,100046.88
2022-09-14T21:15:49.734Z,100042.94
2022-09-14T21:18:35.375Z,100043.94
2022-09-14T21:21:20.811Z,100040.72
2022-09-14T21:24:07.023Z,100045.88
2022-09-14T21:26:52.654Z,100045.69
2022-09-14T21:29:37.644Z,100053.72
2022-09-14T21:32:23.096Z,100046.56
2022-09-14T21:35:08.353Z,100041.56
2022-09-14T21:37:53.549Z,100051.56
2022-09-14T21:40:43.128Z,100053.94
2022-09-14T21:43:28.574Z,100050.13
2022-09-14T21:46:14.454Z,100057.38
2022-09-14T21:48:59.620Z,100049.66
2022-09-14T21:51:44.744Z,100045.38
2022-09-14T21:54:30.161Z,100045.13
2022-09-14T21:57:15.407Z,100047.22
2022-09-14T22:00:00.792Z,100058.75
2022-09-14T22:02:46.021Z,100055.41
2022-09-14T22:05:31.589Z,100054.19
2022-09-14T22:08:16.850Z,100049.81
2022-09-14T22:11:03.610Z,100052.06
2022-09-14T22:13:55.937Z,100043.34
2022-09-14T22:16:41.577Z,100050.56
2022-09-14T22:19:28.574Z,100039.53
2022-09-14T22:22:13.845Z,100054.31
2022-09-14T22:24:59.209Z,100053.69
2022-09-14T22:27:44.306Z,100048.94
2022-09-14T22:30:29.720Z,100056.03
2022-09-14T22:33:15.807Z,100056.47
2022-09-14T22:36:02.268Z,100051.41
2022-09-14T22:38:47.636Z,100047.94
2022-09-14T22:41:33.380Z,100051.44
2022-09-14T22:44:18.768Z,100049.03
2022-09-14T22:47:04.395Z,100048.44
2022-09-14T22:49:49.859Z,100043.59
2022-09-14T22:52:35.308Z,100040.75
2022-09-14T22:55:20.795Z,100043.50
2022-09-14T22:58:06.587Z,100034.25
2022-09-14T23:00:52.257Z,100033.50
2022-09-14T23:03:38.059Z,100039.50
2022-09-14T23:06:27.548Z,100035.16
2022-09-14T23:09:17.226Z,100039.28
2022-09-14T23:12:02.270Z,100033.47
2022-09-14T23:14:47.388Z,100029.91
2022-09-14T23:17:33.738Z,100025.16
2022-09-14T23:20:18.750Z,100029.13
2022-09-14T23:23:04.251Z,100030.69
2022-09-14T23:25:49.469Z,100029.75
2022-09-14T23:28:34.724Z,100027.31
2022-09-14T23:31:20.573Z,100030.78
2022-09-14T23:34:05.959Z,100027.72
2022-09-14T23:36:51.496Z,100025.28
2022-09-14T23:39:36.605Z,100022.00
2022-09-14T23:42:21.938Z,100016.66
2022-09-14T23:45:07.514Z,100011.72
2022-09-14T23:47:52.633Z,100011.06
2022-09-14T23:50:38.030Z,100010.50
2022-09-14T23:53:23.112Z,100010.84
2022-09-14T23:56:09.313Z,100007.09
2022-09-14T23:58:54.508Z,100001.63
